createdAt,value
2016-10-16T09:20:24.779Z,1022.6
2016-10-16T09:21:25.435Z,1022.66
2016-10-16T09:22:26.083Z,1022.65
2016-10-16T09:23:26.737Z,1022.65
2016-10-16T09:24:27.427Z,1022.67
2016-10-16T09:25:28.118Z,1022.67
2016-10-16T09:26:28.764Z,1022.67
2016-10-16T09:27:29.434Z,1022.69
2016-10-16T09:28:30.182Z,1022.73
2016-10-16T09:29:31.171Z,1022.71
2016-10-16T09:30:31.879Z,1022.74
2016-10-16T09:31:32.555Z,1022.71
2016-10-16T09:32:33.214Z,1022.77
2016-10-16T09:33:33.869Z,1022.76
2016-10-16T09:34:34.532Z,1022.75
2016-10-16T09:35:35.192Z,1022.76
2016-10-16T09:36:35.976Z,1022.77
2016-10-16T09:37:36.637Z,1022.75
2016-10-16T09:38:37.301Z,1022.78
2016-10-16T09:39:37.967Z,1022.76
2016-10-16T09:40:38.649Z,1022.74
2016-10-16T09:41:39.307Z,1022.76
2016-10-16T09:42:39.976Z,1022.78
2016-10-16T09:43:40.659Z,1022.75
2016-10-16T09:44:41.358Z,1022.79
2016-10-16T09:45:42.027Z,1022.81
2016-10-16T09:46:42.679Z,1022.8
2016-10-16T09:47:43.346Z,1022.82
2016-10-16T09:48:44.013Z,1022.82
2016-10-16T09:49:44.683Z,1022.81
2016-10-16T09:50:45.400Z,1022.83
2016-10-16T09:51:46.059Z,1022.86
2016-10-16T09:52:46.757Z,1022.87
2016-10-16T09:53:47.435Z,1022.84
2016-10-16T09:54:48.097Z,1022.82
2016-10-16T09:55:48.812Z,1022.81
2016-10-16T09:56:49.506Z,1022.84
2016-10-16T09:57:50.172Z,1022.84
2016-10-16T09:58:50.850Z,1022.85
2016-10-16T09:59:51.515Z,1022.86
2016-10-16T10:00:52.193Z,1022.82
2016-10-16T10:01:52.856Z,1022.83
2016-10-16T10:02:53.549Z,1022.85
2016-10-16T10:03:54.217Z,1022.79
2016-10-16T10:04:55.000Z,1022.83
2016-10-16T10:05:55.718Z,1022.82
2016-10-16T10:06:57.131Z,1022.82
2016-10-16T10:07:58.108Z,1022.85
2016-10-16T10:08:58.970Z,1022.88
2016-10-16T10:09:59.737Z,1022.9
2016-10-16T10:11:00.526Z,1022.91
2016-10-16T10:12:01.400Z,1022.88
2016-10-16T10:13:02.145Z,1022.86
2016-10-16T10:14:02.855Z,1022.88
2016-10-16T10:15:03.554Z,1022.91
2016-10-16T10:16:04.228Z,1022.88
2016-10-16T10:17:04.910Z,1022.93
2016-10-16T10:18:05.585Z,1022.92
2016-10-16T10:19:07.327Z,1022.93
2016-10-16T10:20:08.400Z,1022.94
2016-10-16T10:21:08.415Z,1022.95
2016-10-16T10:22:09.051Z,1022.99
2016-10-16T10:23:09.717Z,1022.97
2016-10-16T10:24:10.384Z,1022.98
2016-10-16T10:25:11.046Z,1022.98
2016-10-16T10:26:11.702Z,1023.01
2016-10-16T10:27:12.373Z,1023.01
2016-10-16T10:28:13.040Z,1023.01
2016-10-16T10:29:13.742Z,1023.06
2016-10-16T10:30:14.441Z,1023.07
2016-10-16T10:31:15.219Z,1023.06
2016-10-16T16:10:18.632Z,1023.02
2016-10-16T16:11:19.286Z,1023.01
2016-10-16T16:12:19.934Z,1023.01
2016-10-16T16:13:20.594Z,1023.06
2016-10-16T16:14:21.274Z,1023.07
2016-10-16T16:15:21.925Z,1023.01
2016-10-16T16:16:22.573Z,1023.06
2016-10-16T16:17:23.245Z,1023.03
2016-10-16T16:18:23.907Z,1023.09
2016-10-16T16:19:24.572Z,1023.06
2016-10-16T16:20:25.256Z,1023.06
2016-10-16T16:21:25.933Z,1023.07
2016-10-16T16:22:26.580Z,1023.04
2016-10-16T16:23:27.233Z,1023.06
2016-10-16T16:24:27.898Z,1023.11
2016-10-16T16:25:28.562Z,1023.09
2016-10-16T16:26:29.223Z,1023.07
2016-10-16T16:27:29.932Z,1023.07
2016-10-16T16:28:30.609Z,1023.12
2016-10-16T16:29:31.292Z,1023.09
2016-10-16T16:30:31.951Z,1023.11
2016-10-16T16:31:32.615Z,1023.13
2016-10-16T16:32:33.291Z,1023.1
2016-10-16T16:33:33.967Z,1023.11
2016-10-16T16:34:35.475Z,1023.08
2016-10-16T16:35:35.502Z,1023.05
2016-10-16T16:36:37.242Z,1023.07
2016-10-16T16:37:40.904Z,1023.1
2016-10-16T16:38:41.599Z,1023.1
2016-10-16T16:39:42.528Z,1023.09
2016-10-16T16:40:43.190Z,1023.15
2016-10-16T16:41:43.866Z,1023.13
2016-10-16T16:42:44.515Z,1023.1
2016-10-16T16:43:45.216Z,1023.1
2016-10-16T16:44:45.890Z,1023.15
2016-10-16T16:45:46.710Z,1023.17
2016-10-16T16:46:53.686Z,1023.19
2016-10-16T16:48:07.802Z,1023.21
2016-10-16T16:49:08.535Z,1023.24
2016-10-16T16:50:09.262Z,1023.21
2016-10-16T16:51:10.220Z,1023.22
2016-10-16T16:52:10.844Z,1023.22
2016-10-16T16:53:11.503Z,1023.24
2016-10-16T16:54:12.637Z,1023.23
2016-10-16T16:55:13.612Z,1023.28
2016-10-16T16:56:14.456Z,1023.27
2016-10-16T16:57:16.030Z,1023.23
2016-10-16T16:58:16.991Z,1023.25
2016-10-16T16:59:17.690Z,1023.3
2016-10-16T17:00:19.414Z,1023.31
2016-10-16T17:01:20.255Z,1023.29
2016-10-16T17:02:21.691Z,1023.31
2016-10-16T17:03:22.517Z,1023.31
2016-10-16T17:04:24.111Z,1023.31
2016-10-16T17:05:24.792Z,1023.31
2016-10-16T17:06:25.452Z,1023.32
2016-10-16T17:07:26.141Z,1023.29
2016-10-16T17:08:26.813Z,1023.32
2016-10-16T17:09:27.476Z,1023.38
2016-10-16T17:10:28.134Z,1023.35
2016-10-16T17:11:29.028Z,1023.34
2016-10-16T17:12:29.712Z,1023.33
2016-10-16T17:13:30.430Z,1023.32
2016-10-16T17:14:31.089Z,1023.35
2016-10-16T17:15:31.783Z,1023.33
2016-10-16T17:16:32.806Z,1023.34
2016-10-16T17:17:33.483Z,1023.34
2016-10-16T17:18:34.372Z,1023.34
2016-10-16T17:19:35.069Z,1023.38
2016-10-16T17:20:35.791Z,1023.39
2016-10-16T17:21:36.576Z,1023.42
2016-10-16T17:22:37.240Z,1023.37
2016-10-16T17:23:38.087Z,1023.43
2016-10-16T17:24:38.751Z,1023.44
2016-10-16T17:25:39.435Z,1023.42
2016-10-16T17:26:40.156Z,1023.43
2016-10-16T17:27:40.790Z,1023.45
2016-10-16T17:28:41.453Z,1023.45
2016-10-16T17:29:42.117Z,1023.45
2016-10-16T17:30:42.813Z,1023.4
2016-10-16T17:31:43.482Z,1023.45
2016-10-16T17:32:44.139Z,1023.44
2016-10-16T17:33:44.804Z,1023.44
2016-10-16T17:34:45.704Z,1023.44
2016-10-16T17:35:46.369Z,1023.44
2016-10-16T17:36:47.077Z,1023.45
2016-10-16T17:37:47.810Z,1023.44
2016-10-16T17:38:48.538Z,1023.42
2016-10-16T17:39:49.193Z,1023.46
2016-10-16T17:40:49.903Z,1023.42
2016-10-16T17:41:50.557Z,1023.43
2016-10-16T17:42:51.214Z,1023.41
2016-10-16T17:43:51.880Z,1023.39
2016-10-16T17:44:52.557Z,1023.46
2016-10-16T17:45:53.266Z,1023.49
2016-10-16T17:46:54.078Z,1023.43
2016-10-16T17:47:54.766Z,1023.45
2016-10-16T17:48:55.413Z,1023.43
2016-10-16T17:49:56.080Z,1023.45
2016-10-16T17:50:56.743Z,1023.5
2016-10-16T17:51:57.401Z,1023.5
2016-10-16T17:52:58.076Z,1023.52
2016-10-16T17:53:58.751Z,1023.53
2016-10-16T17:54:59.440Z,1023.54
2016-10-16T17:56:00.110Z,1023.52
2016-10-16T17:57:00.774Z,1023.51
2016-10-16T17:58:01.440Z,1023.48
2016-10-16T17:59:02.089Z,1023.54
2016-10-16T18:00:02.749Z,1023.49
2016-10-16T18:01:03.433Z,1023.54
2016-10-16T18:02:04.103Z,1023.54
2016-10-16T18:03:04.772Z,1023.55
2016-10-16T18:04:05.440Z,1023.55
2016-10-16T18:05:06.127Z,1023.57
2016-10-16T18:06:06.796Z,1023.64
2016-10-16T18:07:07.463Z,1023.62
2016-10-16T18:08:08.121Z,1023.65
2016-10-16T18:09:08.801Z,1023.65
2016-10-16T18:10:09.474Z,1023.61
2016-10-16T18:11:10.153Z,1023.61
2016-10-16T18:12:10.820Z,1023.65
2016-10-16T18:13:11.495Z,1023.62
2016-10-16T18:14:12.194Z,1023.64
2016-10-16T18:15:12.867Z,1023.65
2016-10-16T18:16:13.562Z,1023.65
2016-10-16T18:17:14.234Z,1023.7
2016-10-16T18:18:14.886Z,1023.71
2016-10-16T18:19:15.567Z,1023.67
2016-10-16T18:20:16.228Z,1023.72
2016-10-16T18:21:16.895Z,1023.71
2016-10-16T18:22:17.551Z,1023.72
2016-10-16T18:23:18.219Z,1023.71
2016-10-16T18:24:18.884Z,1023.71
2016-10-16T18:25:19.561Z,1023.72
2016-10-16T18:26:20.240Z,1023.74
2016-10-16T18:27:20.929Z,1023.73
2016-10-16T18:28:21.596Z,1023.76
2016-10-16T18:29:22.273Z,1023.79
2016-10-16T18:30:22.944Z,1023.73
2016-10-16T18:31:23.663Z,1023.71
2016-10-16T18:32:24.380Z,1023.77
2016-10-16T18:33:25.039Z,1023.77
2016-10-16T18:34:27.439Z,1023.72
2016-10-16T18:35:28.110Z,1023.71
2016-10-16T18:36:28.863Z,1023.69
2016-10-16T18:37:29.863Z,1023.68
2016-10-16T18:38:30.566Z,1023.73
2016-10-16T18:39:31.220Z,1023.73
2016-10-16T18:40:31.877Z,1023.76
2016-10-16T18:41:32.531Z,1023.76
2016-10-16T18:42:33.202Z,1023.78
2016-10-16T18:43:33.853Z,1023.73
2016-10-16T18:44:34.512Z,1023.77
2016-10-16T18:45:35.188Z,1023.73
2016-10-16T18:46:35.848Z,1023.77
2016-10-16T18:47:36.513Z,1023.75
2016-10-16T18:48:37.215Z,1023.71
2016-10-16T18:49:37.862Z,1023.78
2016-10-16T18:50:38.535Z,1023.8
2016-10-16T18:51:39.202Z,1023.79
2016-10-16T18:52:39.885Z,1023.78
2016-10-16T18:53:40.557Z,1023.82
2016-10-16T18:54:41.225Z,1023.84
2016-10-16T18:55:41.894Z,1023.86
2016-10-16T18:56:42.571Z,1023.82
2016-10-16T18:57:43.598Z,1023.82
2016-10-16T18:58:44.398Z,1023.79
2016-10-16T18:59:45.273Z,1023.82
2016-10-16T19:00:46.027Z,1023.83
2016-10-16T19:01:46.732Z,1023.79
2016-10-16T19:02:47.654Z,1023.8
2016-10-16T19:03:48.385Z,1023.76
2016-10-16T19:04:49.240Z,1023.79
2016-10-16T19:05:49.952Z,1023.8
2016-10-16T19:06:50.625Z,1023.73
2016-10-16T19:07:51.305Z,1023.8
2016-10-16T19:08:52.007Z,1023.75
2016-10-16T19:09:52.694Z,1023.79
2016-10-16T19:10:53.358Z,1023.75
2016-10-16T19:11:54.080Z,1023.79
2016-10-16T19:12:54.777Z,1023.75
2016-10-16T19:13:55.449Z,1023.77
2016-10-16T19:14:56.112Z,1023.82
2016-10-16T19:15:56.788Z,1023.87
2016-10-16T19:16:57.450Z,1023.77
2016-10-16T19:17:58.110Z,1023.84
2016-10-16T19:18:58.777Z,1023.87
2016-10-16T19:19:59.445Z,1023.87
2016-10-16T19:21:00.120Z,1023.85
2016-10-16T19:22:00.788Z,1023.85
2016-10-16T19:23:01.459Z,1023.8
2016-10-16T19:24:02.132Z,1023.84
2016-10-16T19:25:02.796Z,1023.87
2016-10-16T19:26:03.477Z,1023.81
2016-10-16T19:27:04.148Z,1023.79
2016-10-16T19:28:04.826Z,1023.84
2016-10-16T19:29:05.719Z,1023.77
2016-10-16T19:30:06.522Z,1023.79
2016-10-16T19:31:07.303Z,1023.8
2016-10-16T19:32:07.979Z,1023.77
2016-10-16T19:33:08.737Z,1023.75
2016-10-16T19:34:09.599Z,1023.78
2016-10-16T19:35:10.299Z,1023.77
2016-10-16T19:36:11.136Z,1023.79
2016-10-16T19:37:11.842Z,1023.82
2016-10-16T19:38:12.515Z,1023.81
2016-10-16T19:39:13.196Z,1023.77
2016-10-16T19:40:13.945Z,1023.79
2016-10-16T19:41:14.765Z,1023.84
2016-10-16T19:42:15.581Z,1023.88
2016-10-16T19:43:16.290Z,1023.8
2016-10-16T19:44:16.981Z,1023.84
2016-10-16T19:45:17.636Z,1023.81
2016-10-16T19:46:18.319Z,1023.82
2016-10-16T19:47:19.083Z,1023.73
2016-10-16T19:48:19.756Z,1023.76
2016-10-16T19:49:20.476Z,1023.74
2016-10-16T19:50:21.103Z,1023.74
2016-10-16T19:51:21.897Z,1023.79
2016-10-16T19:52:22.620Z,1023.73
2016-10-16T19:53:23.334Z,1023.77
2016-10-16T19:54:24.048Z,1023.75
2016-10-16T19:55:24.819Z,1023.8
2016-10-16T19:56:25.515Z,1023.79
2016-10-16T19:57:26.207Z,1023.81
2016-10-16T19:58:26.869Z,1023.86
2016-10-16T19:59:27.714Z,1023.87
2016-10-16T20:00:28.475Z,1023.85
2016-10-16T20:01:30.627Z,1023.88
2016-10-16T20:02:31.734Z,1023.9
2016-10-16T20:03:32.912Z,1023.9
2016-10-16T20:04:33.364Z,1023.9
2016-10-16T20:05:34.047Z,1023.91
2016-10-16T20:06:34.974Z,1023.85
2016-10-16T20:07:35.750Z,1023.87
2016-10-16T20:08:36.548Z,1023.81
2016-10-16T20:09:37.249Z,1023.85
2016-10-16T20:10:37.975Z,1023.87
2016-10-16T20:11:38.762Z,1023.9
2016-10-16T20:12:39.588Z,1023.88
2016-10-16T20:13:40.564Z,1023.86
2016-10-16T20:14:41.353Z,1023.86
2016-10-16T20:15:42.156Z,1023.88
2016-10-16T20:16:42.823Z,1023.91
2016-10-16T20:17:43.766Z,1023.89
2016-10-16T20:18:44.435Z,1023.85
2016-10-16T20:19:45.124Z,1023.88
2016-10-16T20:20:45.815Z,1023.84
2016-10-16T20:21:46.908Z,1023.9
2016-10-16T20:22:47.601Z,1023.84
2016-10-16T20:23:48.352Z,1023.84
2016-10-16T20:24:49.073Z,1023.83
2016-10-16T20:25:49.791Z,1023.83
2016-10-16T20:26:50.492Z,1023.86
2016-10-16T20:27:51.262Z,1023.92
2016-10-16T20:28:52.021Z,1023.91
2016-10-16T20:29:52.784Z,1023.94
2016-10-16T20:30:53.514Z,1023.89
2016-10-16T20:31:54.414Z,1023.92
2016-10-16T20:32:55.259Z,1023.9
2016-10-16T20:33:56.015Z,1023.9
2016-10-16T20:34:57.128Z,1023.92
2016-10-16T20:35:57.940Z,1023.88
2016-10-16T20:36:58.840Z,1023.92
2016-10-16T20:37:59.543Z,1023.88
2016-10-16T20:39:00.229Z,1023.88
2016-10-16T20:40:00.894Z,1023.88
2016-10-16T20:41:01.562Z,1023.89
2016-10-16T20:42:02.292Z,1023.92
2016-10-16T20:43:02.962Z,1023.93
2016-10-16T20:44:03.637Z,1023.9
2016-10-16T20:45:04.318Z,1023.89
2016-10-16T20:46:04.985Z,1023.87
2016-10-16T20:47:05.661Z,1023.95
2016-10-16T20:48:06.326Z,1023.92
2016-10-16T20:49:07.019Z,1023.91
2016-10-16T20:50:07.689Z,1023.87
2016-10-16T20:51:08.357Z,1023.9
2016-10-16T20:52:09.073Z,1023.9
2016-10-16T20:53:09.752Z,1023.96
2016-10-16T20:54:10.458Z,1023.93
2016-10-16T20:55:12.397Z,1023.92
2016-10-16T20:56:12.972Z,1023.91
2016-10-16T20:57:13.881Z,1023.93
2016-10-16T20:58:14.764Z,1023.93
2016-10-16T20:59:15.443Z,1023.93
2016-10-16T21:00:16.137Z,1023.93
2016-10-16T21:01:16.820Z,1023.9
2016-10-16T21:02:17.494Z,1023.95
2016-10-16T21:03:18.163Z,1023.95
2016-10-16T21:04:18.832Z,1023.97
2016-10-16T21:05:19.506Z,1024.03
2016-10-16T21:06:20.198Z,1023.92
2016-10-16T21:07:20.883Z,1023.97
2016-10-16T21:08:21.543Z,1023.97
2016-10-16T21:09:22.198Z,1023.94
2016-10-16T21:10:22.954Z,1023.94
2016-10-16T21:11:23.624Z,1023.92
2016-10-16T21:12:24.496Z,1023.93
2016-10-16T21:13:25.165Z,1023.94
2016-10-16T21:14:25.835Z,1023.95
2016-10-16T21:15:26.493Z,1023.88
2016-10-16T21:16:27.881Z,1023.93
